Loyal, WI

1:47 PM CST on December 03, 2016 (GMT -0600)
Backyard, N. Andrews Ave | | Change Station

Elev 1161 ft 44.77 °N, 90.60 °W | Updated 4 seconds ago

Overcast
Overcast
30.2 °F
Feels Like 30 °F
N
1.3
Wind Variable Wind from SSW
Gusts 2.5 mph

Today
High -- | Low -- °F
--% Chance of Precip.
Yesterday
High -- | Low -- °F
Precip. -- in
Pressure 30.31 in
Visibility 8.0 miles
Clouds Overcast 1900 ft
Windchill 30 °F
Dew Point 20 °F
Humidity 65%
Rainfall 0.00 in
Snow Depth Not available.
7:21 AM 4:22 PM
Waxing Crescent, 16% visible
METAR KMFI 031854Z AUTO 27005KT 8SM OVC019 M02/M06 A3025 RMK AO2 SLP262 T10171056
Pressure 30.31 in
Visibility 8.0 miles
Clouds Overcast 1900 ft
Windchill 30 °F
Dew Point 20 °F
Humidity 65%
Rainfall 0.00 in
Snow Depth Not available.
7:21 AM 4:22 PM
Waxing Crescent, 16% visible
METAR KMFI 031854Z AUTO 27005KT 8SM OVC019 M02/M06 A3025 RMK AO2 SLP262 T10171056

10-Day Weather Forecast

Almanac

Astronomy

Dec. 03, 2016 Rise Set
Actual Time
Civil Twilight
Nautical Twilight
Astronomical Twilight
Moon
Length of Visible Light
Length of Day
Tomorrow will be .
, % of the Moon is Illuminated

Today's Extremes

State Highs State Lows

Community

WunderPhotos

Upload Photos

1,955,481 photos uploaded!

WunderBlog® & News

Nearby

Air Quality

  Air Quality AQ Index Pollutant
Not available.

Snow Depth

Station Depth Elevation

Earthquake Activity

City Distance Mag. Time & Date
Minimum magnitude displayed is 2.5.

Coastal Water Temperatures

Place Temperature

Stations

Nearby Weather Stations

Station Location Temp. Windchill Dew Point Humidity Wind Precip. Elev Updated Type
                   

Watches & Warnings

There are currently no watches in effect.